sensor_id;sensor_type;location;lat;lon;timestamp;P1;durP1;ratioP1;P2;durP2;ratioP2
6376;SDS011;3221;48.858;10.128;2023-02-28T00:01:05;6.13;;;3.97;;
6376;SDS011;3221;48.858;10.128;2023-02-28T00:03:32;4.90;;;3.80;;
6376;SDS011;3221;48.858;10.128;2023-02-28T00:06:04;5.43;;;4.23;;
6376;SDS011;3221;48.858;10.128;2023-02-28T00:08:32;7.23;;;4.57;;
6376;SDS011;3221;48.858;10.128;2023-02-28T00:11:03;6.27;;;4.63;;
6376;SDS011;3221;48.858;10.128;2023-02-28T00:13:33;5.93;;;4.10;;
6376;SDS011;3221;48.858;10.128;2023-02-28T00:16:03;6.40;;;4.60;;
6376;SDS011;3221;48.858;10.128;2023-02-28T00:18:32;5.23;;;4.63;;
6376;SDS011;3221;48.858;10.128;2023-02-28T00:20:59;4.80;;;4.30;;
6376;SDS011;3221;48.858;10.128;2023-02-28T00:23:26;5.17;;;4.67;;
6376;SDS011;3221;48.858;10.128;2023-02-28T00:25:53;5.70;;;4.40;;
6376;SDS011;3221;48.858;10.128;2023-02-28T00:28:20;7.40;;;4.43;;
6376;SDS011;3221;48.858;10.128;2023-02-28T00:30:47;7.20;;;5.03;;
6376;SDS011;3221;48.858;10.128;2023-02-28T00:33:14;6.03;;;4.97;;
6376;SDS011;3221;48.858;10.128;2023-02-28T00:35:41;6.00;;;4.80;;
6376;SDS011;3221;48.858;10.128;2023-02-28T00:38:08;6.73;;;4.90;;
6376;SDS011;3221;48.858;10.128;2023-02-28T00:40:35;6.17;;;4.87;;
6376;SDS011;3221;48.858;10.128;2023-02-28T00:43:02;6.33;;;4.43;;
6376;SDS011;3221;48.858;10.128;2023-02-28T00:45:30;5.37;;;4.50;;
6376;SDS011;3221;48.858;10.128;2023-02-28T00:47:57;5.70;;;4.87;;
6376;SDS011;3221;48.858;10.128;2023-02-28T00:50:24;6.77;;;5.13;;
6376;SDS011;3221;48.858;10.128;2023-02-28T00:52:50;5.70;;;4.70;;
6376;SDS011;3221;48.858;10.128;2023-02-28T00:55:19;6.20;;;4.63;;
6376;SDS011;3221;48.858;10.128;2023-02-28T00:57:47;7.53;;;5.10;;
6376;SDS011;3221;48.858;10.128;2023-02-28T01:00:14;5.37;;;4.60;;
6376;SDS011;3221;48.858;10.128;2023-02-28T01:02:41;5.63;;;5.00;;
6376;SDS011;3221;48.858;10.128;2023-02-28T01:05:08;7.60;;;5.40;;
6376;SDS011;3221;48.858;10.128;2023-02-28T01:07:35;6.30;;;4.90;;
6376;SDS011;3221;48.858;10.128;2023-02-28T01:10:02;6.87;;;5.13;;
6376;SDS011;3221;48.858;10.128;2023-02-28T01:12:29;7.13;;;5.20;;
6376;SDS011;3221;48.858;10.128;2023-02-28T01:14:56;5.57;;;4.83;;
6376;SDS011;3221;48.858;10.128;2023-02-28T01:17:23;7.73;;;5.40;;
6376;SDS011;3221;48.858;10.128;2023-02-28T01:19:52;6.03;;;5.13;;
6376;SDS011;3221;48.858;10.128;2023-02-28T01:22:23;7.33;;;5.63;;
6376;SDS011;3221;48.858;10.128;2023-02-28T01:24:50;6.70;;;5.30;;
6376;SDS011;3221;48.858;10.128;2023-02-28T01:27:17;6.90;;;5.40;;
6376;SDS011;3221;48.858;10.128;2023-02-28T01:29:44;6.10;;;4.80;;
6376;SDS011;3221;48.858;10.128;2023-02-28T01:32:11;6.10;;;4.83;;
6376;SDS011;3221;48.858;10.128;2023-02-28T01:34:38;8.30;;;5.20;;
6376;SDS011;3221;48.858;10.128;2023-02-28T01:37:05;6.87;;;5.17;;
6376;SDS011;3221;48.858;10.128;2023-02-28T01:39:31;6.77;;;4.77;;
6376;SDS011;3221;48.858;10.128;2023-02-28T01:41:58;5.77;;;4.83;;
6376;SDS011;3221;48.858;10.128;2023-02-28T01:47:47;6.37;;;5.27;;
6376;SDS011;3221;48.858;10.128;2023-02-28T01:50:21;6.70;;;5.43;;
6376;SDS011;3221;48.858;10.128;2023-02-28T01:52:51;6.30;;;5.23;;
6376;SDS011;3221;48.858;10.128;2023-02-28T01:55:22;6.93;;;5.20;;
6376;SDS011;3221;48.858;10.128;2023-02-28T01:57:57;6.73;;;5.07;;
6376;SDS011;3221;48.858;10.128;2023-02-28T02:00:26;6.87;;;5.17;;
6376;SDS011;3221;48.858;10.128;2023-02-28T02:02:55;6.40;;;5.10;;
6376;SDS011;3221;48.858;10.128;2023-02-28T02:05:26;5.83;;;5.23;;
6376;SDS011;3221;48.858;10.128;2023-02-28T02:08:00;6.93;;;5.77;;
6376;SDS011;3221;48.858;10.128;2023-02-28T02:10:35;6.57;;;5.47;;
6376;SDS011;3221;48.858;10.128;2023-02-28T02:16:26;6.43;;;4.90;;
6376;SDS011;3221;48.858;10.128;2023-02-28T02:27:19;6.50;;;4.80;;
6376;SDS011;3221;48.858;10.128;2023-02-28T02:35:40;7.50;;;5.70;;
6376;SDS011;3221;48.858;10.128;2023-02-28T02:39:17;7.90;;;5.70;;
6376;SDS011;3221;48.858;10.128;2023-02-28T02:43:49;6.67;;;5.60;;
6376;SDS011;3221;48.858;10.128;2023-02-28T02:46:27;7.10;;;5.53;;
6376;SDS011;3221;48.858;10.128;2023-02-28T02:48:58;6.67;;;5.40;;
6376;SDS011;3221;48.858;10.128;2023-02-28T02:51:30;8.57;;;5.77;;
6376;SDS011;3221;48.858;10.128;2023-02-28T02:54:04;7.13;;;5.53;;
6376;SDS011;3221;48.858;10.128;2023-02-28T02:56:39;8.00;;;6.00;;
6376;SDS011;3221;48.858;10.128;2023-02-28T02:59:09;6.93;;;5.80;;
6376;SDS011;3221;48.858;10.128;2023-02-28T03:01:39;8.43;;;5.73;;
6376;SDS011;3221;48.858;10.128;2023-02-28T03:04:10;8.27;;;5.70;;
6376;SDS011;3221;48.858;10.128;2023-02-28T03:06:42;8.23;;;5.67;;
6376;SDS011;3221;48.858;10.128;2023-02-28T03:09:09;8.97;;;6.67;;
6376;SDS011;3221;48.858;10.128;2023-02-28T03:11:38;7.17;;;6.10;;
6376;SDS011;3221;48.858;10.128;2023-02-28T03:19:45;6.87;;;5.40;;
6376;SDS011;3221;48.858;10.128;2023-02-28T03:30:48;9.37;;;6.00;;
6376;SDS011;3221;48.858;10.128;2023-02-28T03:35:57;7.97;;;6.40;;
6376;SDS011;3221;48.858;10.128;2023-02-28T03:38:33;7.43;;;6.17;;
6376;SDS011;3221;48.858;10.128;2023-02-28T03:41:17;8.20;;;6.20;;
6376;SDS011;3221;48.858;10.128;2023-02-28T03:43:50;8.77;;;6.23;;
6376;SDS011;3221;48.858;10.128;2023-02-28T03:46:23;8.90;;;6.83;;
6376;SDS011;3221;48.858;10.128;2023-02-28T03:49:02;8.57;;;6.57;;
6376;SDS011;3221;48.858;10.128;2023-02-28T03:51:34;8.63;;;6.40;;
6376;SDS011;3221;48.858;10.128;2023-02-28T03:54:05;9.33;;;6.70;;
6376;SDS011;3221;48.858;10.128;2023-02-28T03:56:41;8.70;;;6.80;;
6376;SDS011;3221;48.858;10.128;2023-02-28T03:59:49;8.93;;;7.13;;
6376;SDS011;3221;48.858;10.128;2023-02-28T04:02:10;8.27;;;6.30;;
6376;SDS011;3221;48.858;10.128;2023-02-28T04:04:37;10.10;;;6.37;;
6376;SDS011;3221;48.858;10.128;2023-02-28T04:07:05;7.60;;;6.30;;
6376;SDS011;3221;48.858;10.128;2023-02-28T04:09:37;8.87;;;7.10;;
6376;SDS011;3221;48.858;10.128;2023-02-28T04:12:04;10.13;;;7.10;;
6376;SDS011;3221;48.858;10.128;2023-02-28T04:14:31;9.93;;;7.10;;
6376;SDS011;3221;48.858;10.128;2023-02-28T04:16:58;8.73;;;6.37;;
6376;SDS011;3221;48.858;10.128;2023-02-28T04:19:24;9.43;;;7.30;;
6376;SDS011;3221;48.858;10.128;2023-02-28T04:21:52;9.97;;;6.97;;
6376;SDS011;3221;48.858;10.128;2023-02-28T04:24:20;9.03;;;7.23;;
6376;SDS011;3221;48.858;10.128;2023-02-28T04:26:49;9.00;;;6.77;;
6376;SDS011;3221;48.858;10.128;2023-02-28T04:29:25;9.63;;;7.30;;
6376;SDS011;3221;48.858;10.128;2023-02-28T04:31:54;10.67;;;7.30;;
6376;SDS011;3221;48.858;10.128;2023-02-28T04:34:26;8.63;;;6.83;;
6376;SDS011;3221;48.858;10.128;2023-02-28T04:36:56;9.03;;;7.40;;
6376;SDS011;3221;48.858;10.128;2023-02-28T04:39:40;10.77;;;7.63;;
6376;SDS011;3221;48.858;10.128;2023-02-28T04:42:09;10.40;;;7.70;;
6376;SDS011;3221;48.858;10.128;2023-02-28T04:44:36;9.83;;;7.30;;
6376;SDS011;3221;48.858;10.128;2023-02-28T04:47:03;8.93;;;7.23;;
6376;SDS011;3221;48.858;10.128;2023-02-28T04:49:29;9.00;;;7.30;;
6376;SDS011;3221;48.858;10.128;2023-02-28T04:51:56;11.93;;;8.17;;
6376;SDS011;3221;48.858;10.128;2023-02-28T04:54:23;11.17;;;8.10;;
6376;SDS011;3221;48.858;10.128;2023-02-28T04:56:50;10.67;;;7.67;;
6376;SDS011;3221;48.858;10.128;2023-02-28T04:59:17;9.73;;;7.63;;
6376;SDS011;3221;48.858;10.128;2023-02-28T05:01:47;11.10;;;8.13;;
6376;SDS011;3221;48.858;10.128;2023-02-28T05:04:15;12.40;;;8.80;;
6376;SDS011;3221;48.858;10.128;2023-02-28T05:06:42;10.47;;;7.83;;
6376;SDS011;3221;48.858;10.128;2023-02-28T05:09:09;11.43;;;7.97;;
6376;SDS011;3221;48.858;10.128;2023-02-28T05:11:38;11.67;;;8.03;;
6376;SDS011;3221;48.858;10.128;2023-02-28T05:14:10;13.87;;;8.50;;
6376;SDS011;3221;48.858;10.128;2023-02-28T05:16:39;11.40;;;8.70;;
6376;SDS011;3221;48.858;10.128;2023-02-28T05:19:06;10.97;;;8.57;;
6376;SDS011;3221;48.858;10.128;2023-02-28T05:21:34;11.93;;;8.60;;
6376;SDS011;3221;48.858;10.128;2023-02-28T05:24:04;11.87;;;8.60;;
6376;SDS011;3221;48.858;10.128;2023-02-28T05:26:37;11.30;;;8.70;;
6376;SDS011;3221;48.858;10.128;2023-02-28T05:29:08;12.43;;;8.93;;
6376;SDS011;3221;48.858;10.128;2023-02-28T05:31:35;12.53;;;9.40;;
6376;SDS011;3221;48.858;10.128;2023-02-28T05:34:02;11.80;;;8.53;;
6376;SDS011;3221;48.858;10.128;2023-02-28T05:36:32;13.17;;;9.10;;
6376;SDS011;3221;48.858;10.128;2023-02-28T05:38:59;13.20;;;9.10;;
6376;SDS011;3221;48.858;10.128;2023-02-28T05:41:26;15.07;;;9.23;;
6376;SDS011;3221;48.858;10.128;2023-02-28T05:43:54;13.60;;;10.00;;
6376;SDS011;3221;48.858;10.128;2023-02-28T05:46:21;11.53;;;8.60;;
6376;SDS011;3221;48.858;10.128;2023-02-28T05:48:48;12.93;;;9.53;;
6376;SDS011;3221;48.858;10.128;2023-02-28T05:51:15;14.07;;;9.90;;
6376;SDS011;3221;48.858;10.128;2023-02-28T05:53:42;11.90;;;9.20;;
6376;SDS011;3221;48.858;10.128;2023-02-28T05:56:09;14.07;;;9.40;;
6376;SDS011;3221;48.858;10.128;2023-02-28T05:58:36;13.27;;;10.37;;
6376;SDS011;3221;48.858;10.128;2023-02-28T06:01:30;11.37;;;9.10;;
6376;SDS011;3221;48.858;10.128;2023-02-28T06:04:00;14.87;;;10.00;;
6376;SDS011;3221;48.858;10.128;2023-02-28T06:06:28;13.20;;;10.03;;
6376;SDS011;3221;48.858;10.128;2023-02-28T06:08:55;13.10;;;9.87;;
6376;SDS011;3221;48.858;10.128;2023-02-28T06:11:23;13.93;;;10.23;;
6376;SDS011;3221;48.858;10.128;2023-02-28T06:13:54;12.07;;;9.17;;
6376;SDS011;3221;48.858;10.128;2023-02-28T06:16:29;12.20;;;9.13;;
6376;SDS011;3221;48.858;10.128;2023-02-28T06:18:57;12.20;;;9.43;;
6376;SDS011;3221;48.858;10.128;2023-02-28T06:21:26;13.87;;;9.53;;
6376;SDS011;3221;48.858;10.128;2023-02-28T06:23:55;12.33;;;9.37;;
6376;SDS011;3221;48.858;10.128;2023-02-28T06:26:22;13.20;;;9.53;;
6376;SDS011;3221;48.858;10.128;2023-02-28T06:28:49;14.33;;;10.20;;
6376;SDS011;3221;48.858;10.128;2023-02-28T06:31:17;13.70;;;9.13;;
6376;SDS011;3221;48.858;10.128;2023-02-28T06:33:44;12.60;;;9.50;;
6376;SDS011;3221;48.858;10.128;2023-02-28T06:36:12;13.20;;;10.10;;
6376;SDS011;3221;48.858;10.128;2023-02-28T06:38:40;13.17;;;9.40;;
6376;SDS011;3221;48.858;10.128;2023-02-28T06:41:07;13.17;;;9.57;;
6376;SDS011;3221;48.858;10.128;2023-02-28T06:43:36;13.17;;;9.87;;
6376;SDS011;3221;48.858;10.128;2023-02-28T06:46:06;14.37;;;10.30;;
6376;SDS011;3221;48.858;10.128;2023-02-28T06:48:34;13.57;;;10.03;;
6376;SDS011;3221;48.858;10.128;2023-02-28T06:51:02;13.43;;;10.37;;
6376;SDS011;3221;48.858;10.128;2023-02-28T06:53:33;13.53;;;9.83;;
6376;SDS011;3221;48.858;10.128;2023-02-28T06:56:07;14.53;;;10.67;;
6376;SDS011;3221;48.858;10.128;2023-02-28T06:58:36;13.70;;;9.93;;
6376;SDS011;3221;48.858;10.128;2023-02-28T07:01:03;12.90;;;9.40;;
6376;SDS011;3221;48.858;10.128;2023-02-28T07:03:31;12.50;;;9.67;;
6376;SDS011;3221;48.858;10.128;2023-02-28T07:06:00;14.37;;;9.77;;
6376;SDS011;3221;48.858;10.128;2023-02-28T07:08:27;12.90;;;9.50;;
6376;SDS011;3221;48.858;10.128;2023-02-28T07:10:54;13.90;;;9.93;;
6376;SDS011;3221;48.858;10.128;2023-02-28T07:13:22;14.83;;;10.33;;
6376;SDS011;3221;48.858;10.128;2023-02-28T07:15:57;14.37;;;10.33;;
6376;SDS011;3221;48.858;10.128;2023-02-28T07:18:25;13.63;;;10.00;;
6376;SDS011;3221;48.858;10.128;2023-02-28T07:20:52;14.03;;;10.37;;
6376;SDS011;3221;48.858;10.128;2023-02-28T07:23:19;13.60;;;10.10;;
6376;SDS011;3221;48.858;10.128;2023-02-28T07:25:46;15.77;;;10.83;;
6376;SDS011;3221;48.858;10.128;2023-02-28T07:28:13;14.27;;;9.90;;
6376;SDS011;3221;48.858;10.128;2023-02-28T07:30:41;14.27;;;10.97;;
6376;SDS011;3221;48.858;10.128;2023-02-28T07:33:07;13.90;;;10.23;;
6376;SDS011;3221;48.858;10.128;2023-02-28T07:35:34;16.03;;;10.90;;
6376;SDS011;3221;48.858;10.128;2023-02-28T07:38:01;15.80;;;10.73;;
6376;SDS011;3221;48.858;10.128;2023-02-28T07:40:29;15.00;;;10.70;;
6376;SDS011;3221;48.858;10.128;2023-02-28T07:42:56;14.37;;;10.80;;
6376;SDS011;3221;48.858;10.128;2023-02-28T07:45:24;16.13;;;11.10;;
6376;SDS011;3221;48.858;10.128;2023-02-28T07:47:51;14.93;;;10.87;;
6376;SDS011;3221;48.858;10.128;2023-02-28T07:50:19;17.17;;;11.10;;
6376;SDS011;3221;48.858;10.128;2023-02-28T07:52:45;16.00;;;10.77;;
6376;SDS011;3221;48.858;10.128;2023-02-28T07:55:12;13.80;;;11.40;;
6376;SDS011;3221;48.858;10.128;2023-02-28T07:57:40;16.30;;;10.90;;
6376;SDS011;3221;48.858;10.128;2023-02-28T08:00:09;15.43;;;11.40;;
6376;SDS011;3221;48.858;10.128;2023-02-28T08:02:39;16.17;;;10.93;;
6376;SDS011;3221;48.858;10.128;2023-02-28T08:05:06;16.13;;;11.53;;
6376;SDS011;3221;48.858;10.128;2023-02-28T08:07:34;17.87;;;11.73;;
6376;SDS011;3221;48.858;10.128;2023-02-28T08:10:00;14.53;;;10.90;;
6376;SDS011;3221;48.858;10.128;2023-02-28T08:12:27;17.57;;;10.93;;
6376;SDS011;3221;48.858;10.128;2023-02-28T08:14:54;15.00;;;10.77;;
6376;SDS011;3221;48.858;10.128;2023-02-28T08:17:21;15.03;;;11.00;;
6376;SDS011;3221;48.858;10.128;2023-02-28T08:19:48;14.40;;;11.47;;
6376;SDS011;3221;48.858;10.128;2023-02-28T08:22:15;15.63;;;10.80;;
6376;SDS011;3221;48.858;10.128;2023-02-28T08:24:42;15.17;;;11.40;;
6376;SDS011;3221;48.858;10.128;2023-02-28T08:27:09;16.33;;;11.00;;
6376;SDS011;3221;48.858;10.128;2023-02-28T08:29:39;15.40;;;10.80;;
6376;SDS011;3221;48.858;10.128;2023-02-28T08:32:06;15.17;;;10.83;;
6376;SDS011;3221;48.858;10.128;2023-02-28T08:34:45;16.97;;;11.50;;
6376;SDS011;3221;48.858;10.128;2023-02-28T08:37:13;16.17;;;11.27;;
6376;SDS011;3221;48.858;10.128;2023-02-28T08:39:40;15.07;;;11.40;;
6376;SDS011;3221;48.858;10.128;2023-02-28T08:42:06;14.43;;;10.87;;
6376;SDS011;3221;48.858;10.128;2023-02-28T08:44:33;14.87;;;10.93;;
6376;SDS011;3221;48.858;10.128;2023-02-28T08:47:00;14.97;;;11.37;;
6376;SDS011;3221;48.858;10.128;2023-02-28T08:49:27;14.00;;;10.90;;
6376;SDS011;3221;48.858;10.128;2023-02-28T08:51:54;15.67;;;11.27;;
6376;SDS011;3221;48.858;10.128;2023-02-28T08:54:23;15.90;;;11.43;;
6376;SDS011;3221;48.858;10.128;2023-02-28T08:56:50;14.77;;;11.30;;
6376;SDS011;3221;48.858;10.128;2023-02-28T08:59:17;14.43;;;10.80;;
6376;SDS011;3221;48.858;10.128;2023-02-28T09:01:44;15.73;;;11.37;;
6376;SDS011;3221;48.858;10.128;2023-02-28T09:04:11;15.77;;;11.33;;
6376;SDS011;3221;48.858;10.128;2023-02-28T09:06:42;15.30;;;10.73;;
6376;SDS011;3221;48.858;10.128;2023-02-28T09:09:10;16.53;;;11.20;;
6376;SDS011;3221;48.858;10.128;2023-02-28T09:11:37;15.53;;;10.80;;
6376;SDS011;3221;48.858;10.128;2023-02-28T09:14:04;15.20;;;10.83;;
6376;SDS011;3221;48.858;10.128;2023-02-28T09:16:31;16.07;;;11.03;;
6376;SDS011;3221;48.858;10.128;2023-02-28T09:18:59;16.10;;;11.33;;
6376;SDS011;3221;48.858;10.128;2023-02-28T09:21:26;16.07;;;11.17;;
6376;SDS011;3221;48.858;10.128;2023-02-28T09:23:54;15.17;;;10.97;;
6376;SDS011;3221;48.858;10.128;2023-02-28T09:26:22;15.13;;;10.63;;
6376;SDS011;3221;48.858;10.128;2023-02-28T09:28:51;13.23;;;9.83;;
6376;SDS011;3221;48.858;10.128;2023-02-28T09:31:23;15.60;;;11.23;;
6376;SDS011;3221;48.858;10.128;2023-02-28T09:33:52;13.77;;;10.37;;
6376;SDS011;3221;48.858;10.128;2023-02-28T09:36:21;17.97;;;11.47;;
6376;SDS011;3221;48.858;10.128;2023-02-28T09:38:56;14.20;;;10.40;;
6376;SDS011;3221;48.858;10.128;2023-02-28T09:41:24;16.03;;;11.10;;
6376;SDS011;3221;48.858;10.128;2023-02-28T09:43:55;15.13;;;11.20;;
6376;SDS011;3221;48.858;10.128;2023-02-28T09:46:38;17.63;;;11.07;;
6376;SDS011;3221;48.858;10.128;2023-02-28T09:49:12;15.70;;;11.27;;
6376;SDS011;3221;48.858;10.128;2023-02-28T09:54:37;15.83;;;11.17;;
6376;SDS011;3221;48.858;10.128;2023-02-28T10:02:04;14.07;;;10.63;;
6376;SDS011;3221;48.858;10.128;2023-02-28T10:10:20;15.57;;;11.30;;
6376;SDS011;3221;48.858;10.128;2023-02-28T10:12:54;15.97;;;10.83;;
6376;SDS011;3221;48.858;10.128;2023-02-28T10:15:24;18.30;;;12.27;;
6376;SDS011;3221;48.858;10.128;2023-02-28T10:17:57;15.83;;;10.93;;
6376;SDS011;3221;48.858;10.128;2023-02-28T10:20:35;16.30;;;11.10;;
6376;SDS011;3221;48.858;10.128;2023-02-28T10:25:59;15.67;;;11.30;;
6376;SDS011;3221;48.858;10.128;2023-02-28T10:28:34;14.87;;;11.30;;
6376;SDS011;3221;48.858;10.128;2023-02-28T10:31:01;14.03;;;10.73;;
6376;SDS011;3221;48.858;10.128;2023-02-28T10:33:30;18.27;;;12.30;;
6376;SDS011;3221;48.858;10.128;2023-02-28T10:35:58;16.93;;;11.37;;
6376;SDS011;3221;48.858;10.128;2023-02-28T10:38:36;15.83;;;11.07;;
6376;SDS011;3221;48.858;10.128;2023-02-28T10:41:06;12.70;;;9.83;;
6376;SDS011;3221;48.858;10.128;2023-02-28T10:43:38;16.17;;;10.90;;
6376;SDS011;3221;48.858;10.128;2023-02-28T10:51:38;14.43;;;10.90;;
6376;SDS011;3221;48.858;10.128;2023-02-28T10:54:06;14.57;;;10.57;;
6376;SDS011;3221;48.858;10.128;2023-02-28T10:56:42;16.20;;;10.80;;
6376;SDS011;3221;48.858;10.128;2023-02-28T10:59:29;16.67;;;10.67;;
6376;SDS011;3221;48.858;10.128;2023-02-28T11:01:56;15.83;;;10.67;;
6376;SDS011;3221;48.858;10.128;2023-02-28T11:06:59;15.27;;;11.40;;
6376;SDS011;3221;48.858;10.128;2023-02-28T11:09:33;15.17;;;10.30;;
6376;SDS011;3221;48.858;10.128;2023-02-28T11:12:02;15.60;;;10.73;;
6376;SDS011;3221;48.858;10.128;2023-02-28T11:14:32;14.03;;;10.33;;
6376;SDS011;3221;48.858;10.128;2023-02-28T11:17:19;16.33;;;10.93;;
6376;SDS011;3221;48.858;10.128;2023-02-28T11:19:50;13.60;;;10.17;;
6376;SDS011;3221;48.858;10.128;2023-02-28T11:22:20;15.07;;;10.23;;
6376;SDS011;3221;48.858;10.128;2023-02-28T11:24:51;16.60;;;10.70;;
6376;SDS011;3221;48.858;10.128;2023-02-28T11:30:00;13.83;;;10.03;;
6376;SDS011;3221;48.858;10.128;2023-02-28T11:32:28;12.57;;;10.33;;
6376;SDS011;3221;48.858;10.128;2023-02-28T11:35:17;15.77;;;9.40;;
6376;SDS011;3221;48.858;10.128;2023-02-28T11:38:08;12.93;;;9.53;;
6376;SDS011;3221;48.858;10.128;2023-02-28T11:40:42;13.10;;;9.20;;
6376;SDS011;3221;48.858;10.128;2023-02-28T11:57:46;12.87;;;9.50;;
6376;SDS011;3221;48.858;10.128;2023-02-28T12:11:38;14.90;;;10.60;;
6376;SDS011;3221;48.858;10.128;2023-02-28T12:17:42;13.77;;;9.77;;
6376;SDS011;3221;48.858;10.128;2023-02-28T12:20:24;12.03;;;8.97;;
6376;SDS011;3221;48.858;10.128;2023-02-28T12:28:34;16.13;;;9.87;;
6376;SDS011;3221;48.858;10.128;2023-02-28T12:31:15;13.10;;;9.70;;
6376;SDS011;3221;48.858;10.128;2023-02-28T12:33:50;12.23;;;8.83;;
6376;SDS011;3221;48.858;10.128;2023-02-28T12:36:20;12.47;;;9.50;;
6376;SDS011;3221;48.858;10.128;2023-02-28T12:39:03;12.10;;;9.10;;
6376;SDS011;3221;48.858;10.128;2023-02-28T12:41:39;12.87;;;9.33;;
6376;SDS011;3221;48.858;10.128;2023-02-28T12:44:12;12.47;;;9.47;;
6376;SDS011;3221;48.858;10.128;2023-02-28T12:46:50;12.37;;;9.37;;
6376;SDS011;3221;48.858;10.128;2023-02-28T12:49:25;13.30;;;9.60;;
6376;SDS011;3221;48.858;10.128;2023-02-28T12:51:57;16.00;;;10.17;;
6376;SDS011;3221;48.858;10.128;2023-02-28T12:54:36;13.70;;;10.67;;
6376;SDS011;3221;48.858;10.128;2023-02-28T13:00:15;13.33;;;9.90;;
6376;SDS011;3221;48.858;10.128;2023-02-28T13:02:50;15.47;;;10.50;;
6376;SDS011;3221;48.858;10.128;2023-02-28T13:05:44;13.97;;;9.93;;
6376;SDS011;3221;48.858;10.128;2023-02-28T13:11:23;13.73;;;10.20;;
6376;SDS011;3221;48.858;10.128;2023-02-28T13:14:01;13.03;;;9.90;;
6376;SDS011;3221;48.858;10.128;2023-02-28T13:19:22;13.17;;;10.60;;
6376;SDS011;3221;48.858;10.128;2023-02-28T13:21:52;13.47;;;10.43;;
6376;SDS011;3221;48.858;10.128;2023-02-28T13:29:45;14.37;;;10.60;;
6376;SDS011;3221;48.858;10.128;2023-02-28T13:34:46;14.47;;;11.07;;
6376;SDS011;3221;48.858;10.128;2023-02-28T13:40:41;14.10;;;10.87;;
6376;SDS011;3221;48.858;10.128;2023-02-28T13:42:48;14.40;;;10.57;;
6376;SDS011;3221;48.858;10.128;2023-02-28T13:45:20;14.77;;;10.93;;
6376;SDS011;3221;48.858;10.128;2023-02-28T13:47:54;13.40;;;10.63;;
6376;SDS011;3221;48.858;10.128;2023-02-28T13:50:33;15.40;;;10.93;;
6376;SDS011;3221;48.858;10.128;2023-02-28T13:58:43;14.17;;;10.17;;
6376;SDS011;3221;48.858;10.128;2023-02-28T14:01:41;14.57;;;10.57;;
6376;SDS011;3221;48.858;10.128;2023-02-28T14:06:53;14.27;;;10.80;;
6376;SDS011;3221;48.858;10.128;2023-02-28T14:18:18;14.70;;;10.13;;
6376;SDS011;3221;48.858;10.128;2023-02-28T14:20:56;13.23;;;9.83;;
6376;SDS011;3221;48.858;10.128;2023-02-28T14:31:29;13.47;;;10.40;;
6376;SDS011;3221;48.858;10.128;2023-02-28T14:37:26;14.73;;;10.93;;
6376;SDS011;3221;48.858;10.128;2023-02-28T14:39:56;16.47;;;11.57;;
6376;SDS011;3221;48.858;10.128;2023-02-28T14:42:35;13.70;;;10.87;;
6376;SDS011;3221;48.858;10.128;2023-02-28T14:45:19;14.53;;;11.03;;
6376;SDS011;3221;48.858;10.128;2023-02-28T14:47:47;14.77;;;11.23;;
6376;SDS011;3221;48.858;10.128;2023-02-28T14:50:20;15.17;;;10.50;;
6376;SDS011;3221;48.858;10.128;2023-02-28T14:52:53;14.83;;;11.00;;
6376;SDS011;3221;48.858;10.128;2023-02-28T14:55:26;15.50;;;10.67;;
6376;SDS011;3221;48.858;10.128;2023-02-28T14:57:59;15.57;;;11.23;;
6376;SDS011;3221;48.858;10.128;2023-02-28T15:00:33;14.67;;;10.63;;
6376;SDS011;3221;48.858;10.128;2023-02-28T15:03:22;14.60;;;10.60;;
6376;SDS011;3221;48.858;10.128;2023-02-28T15:06:00;13.70;;;10.73;;
6376;SDS011;3221;48.858;10.128;2023-02-28T15:08:32;16.00;;;11.33;;
6376;SDS011;3221;48.858;10.128;2023-02-28T15:11:04;14.60;;;11.03;;
6376;SDS011;3221;48.858;10.128;2023-02-28T15:13:38;14.37;;;10.57;;
6376;SDS011;3221;48.858;10.128;2023-02-28T15:16:10;16.07;;;10.87;;
6376;SDS011;3221;48.858;10.128;2023-02-28T15:19:02;16.83;;;10.43;;
6376;SDS011;3221;48.858;10.128;2023-02-28T15:21:35;17.40;;;10.10;;
6376;SDS011;3221;48.858;10.128;2023-02-28T15:24:16;14.97;;;10.43;;
6376;SDS011;3221;48.858;10.128;2023-02-28T15:26:55;16.70;;;10.67;;
6376;SDS011;3221;48.858;10.128;2023-02-28T15:29:24;16.50;;;11.30;;
6376;SDS011;3221;48.858;10.128;2023-02-28T15:40:12;13.37;;;9.77;;
6376;SDS011;3221;48.858;10.128;2023-02-28T15:43:12;15.37;;;10.63;;
6376;SDS011;3221;48.858;10.128;2023-02-28T15:45:44;13.90;;;10.20;;
6376;SDS011;3221;48.858;10.128;2023-02-28T15:48:49;14.03;;;9.83;;
6376;SDS011;3221;48.858;10.128;2023-02-28T15:51:33;12.73;;;9.17;;
6376;SDS011;3221;48.858;10.128;2023-02-28T15:54:08;13.30;;;9.93;;
6376;SDS011;3221;48.858;10.128;2023-02-28T15:56:44;14.30;;;9.47;;
6376;SDS011;3221;48.858;10.128;2023-02-28T15:59:15;12.73;;;9.27;;
6376;SDS011;3221;48.858;10.128;2023-02-28T16:01:45;13.13;;;9.67;;
6376;SDS011;3221;48.858;10.128;2023-02-28T16:04:17;12.73;;;9.60;;
6376;SDS011;3221;48.858;10.128;2023-02-28T16:09:24;13.60;;;9.90;;
6376;SDS011;3221;48.858;10.128;2023-02-28T16:11:54;15.30;;;10.07;;
6376;SDS011;3221;48.858;10.128;2023-02-28T16:14:24;14.20;;;10.10;;
6376;SDS011;3221;48.858;10.128;2023-02-28T16:16:54;13.87;;;9.77;;
6376;SDS011;3221;48.858;10.128;2023-02-28T16:19:23;14.97;;;10.27;;
6376;SDS011;3221;48.858;10.128;2023-02-28T16:21:50;18.73;;;10.57;;
6376;SDS011;3221;48.858;10.128;2023-02-28T16:24:17;14.00;;;9.90;;
6376;SDS011;3221;48.858;10.128;2023-02-28T16:26:45;14.07;;;9.47;;
6376;SDS011;3221;48.858;10.128;2023-02-28T16:29:24;15.40;;;9.97;;
6376;SDS011;3221;48.858;10.128;2023-02-28T16:32:00;15.50;;;10.13;;
6376;SDS011;3221;48.858;10.128;2023-02-28T16:34:30;15.60;;;10.57;;
6376;SDS011;3221;48.858;10.128;2023-02-28T16:36:57;16.43;;;10.17;;
6376;SDS011;3221;48.858;10.128;2023-02-28T16:39:24;14.33;;;10.20;;
6376;SDS011;3221;48.858;10.128;2023-02-28T16:41:51;13.23;;;9.97;;
6376;SDS011;3221;48.858;10.128;2023-02-28T16:44:29;19.57;;;11.97;;
6376;SDS011;3221;48.858;10.128;2023-02-28T16:46:59;18.90;;;13.13;;
6376;SDS011;3221;48.858;10.128;2023-02-28T16:49:27;17.03;;;11.00;;
6376;SDS011;3221;48.858;10.128;2023-02-28T16:51:54;17.27;;;10.53;;
6376;SDS011;3221;48.858;10.128;2023-02-28T16:54:21;14.40;;;10.30;;
6376;SDS011;3221;48.858;10.128;2023-02-28T16:56:48;17.07;;;11.50;;
6376;SDS011;3221;48.858;10.128;2023-02-28T16:59:18;17.00;;;11.50;;
6376;SDS011;3221;48.858;10.128;2023-02-28T17:01:48;15.87;;;10.77;;
6376;SDS011;3221;48.858;10.128;2023-02-28T17:04:16;14.50;;;10.70;;
6376;SDS011;3221;48.858;10.128;2023-02-28T17:06:42;15.90;;;11.03;;
6376;SDS011;3221;48.858;10.128;2023-02-28T17:09:17;16.20;;;10.93;;
6376;SDS011;3221;48.858;10.128;2023-02-28T17:11:56;16.13;;;10.83;;
6376;SDS011;3221;48.858;10.128;2023-02-28T17:14:22;19.43;;;12.80;;
6376;SDS011;3221;48.858;10.128;2023-02-28T17:16:49;16.17;;;11.70;;
6376;SDS011;3221;48.858;10.128;2023-02-28T17:19:16;17.53;;;11.90;;
6376;SDS011;3221;48.858;10.128;2023-02-28T17:21:45;15.70;;;11.37;;
6376;SDS011;3221;48.858;10.128;2023-02-28T17:24:14;16.93;;;11.67;;
6376;SDS011;3221;48.858;10.128;2023-02-28T17:26:55;16.03;;;11.07;;
6376;SDS011;3221;48.858;10.128;2023-02-28T17:29:21;14.40;;;10.93;;
6376;SDS011;3221;48.858;10.128;2023-02-28T17:31:48;16.43;;;11.63;;
6376;SDS011;3221;48.858;10.128;2023-02-28T17:34:15;16.13;;;11.20;;
6376;SDS011;3221;48.858;10.128;2023-02-28T17:36:45;17.57;;;12.00;;
6376;SDS011;3221;48.858;10.128;2023-02-28T17:39:13;16.63;;;11.97;;
6376;SDS011;3221;48.858;10.128;2023-02-28T17:41:41;21.77;;;12.10;;
6376;SDS011;3221;48.858;10.128;2023-02-28T17:44:08;17.97;;;11.97;;
6376;SDS011;3221;48.858;10.128;2023-02-28T17:46:35;16.70;;;11.30;;
6376;SDS011;3221;48.858;10.128;2023-02-28T17:49:03;15.83;;;11.70;;